Time;durP1;ratioP1;P1;durP2;ratioP2;P2;SDS_P1;SDS_P2;PMS_P1;PMS_P2;Temp;Humidity;BMP_temperature;BMP_pressure;BME280_temperature;BME280_humidity;BME280_pressure;Samples;Min_cycle;Max_cycle;Signal;HPM_P1;HPM_P2
2023/09/03 00:01:22;;;;;;;0.10;0.10;;;14.50;99.90;;;;;;5071370;28;20223;-77
2023/09/03 00:03:47;;;;;;;0.10;0.10;;;14.50;99.90;;;;;;5087901;28;20620;-77
2023/09/03 00:06:13;;;;;;;0.10;0.10;;;14.40;99.90;;;;;;5090614;28;20881;-77
2023/09/03 00:08:38;;;;;;;0.10;0.10;;;14.40;99.90;;;;;;5091696;28;20205;-77
2023/09/03 00:11:04;;;;;;;0.10;0.10;;;14.40;99.90;;;;;;5092173;28;20242;-77
2023/09/03 00:13:29;;;;;;;0.10;0.10;;;14.40;99.90;;;;;;5090616;28;20722;-77
2023/09/03 00:15:55;;;;;;;0.10;0.10;;;14.40;99.90;;;;;;5090768;28;20617;-77
2023/09/03 00:18:20;;;;;;;0.10;0.10;;;14.50;99.90;;;;;;5072577;28;20185;-77
2023/09/03 00:21:03;;;;;;;0.10;0.10;;;14.40;99.90;;;;;;5089315;28;20200;-77
2023/09/03 00:23:29;;;;;;;0.10;0.10;;;14.30;99.90;;;;;;5086426;28;20200;-77
2023/09/03 00:25:58;;;;;;;0.10;0.10;;;14.30;99.90;;;;;;5068528;28;20512;-77
2023/09/03 00:28:25;;;;;;;0.10;0.10;;;14.30;99.90;;;;;;5091432;28;20443;-77
2023/09/03 00:31:04;;;;;;;0.10;0.10;;;14.30;99.90;;;;;;5091970;28;20524;-76
2023/09/03 00:33:30;;;;;;;0.10;0.10;;;14.30;99.90;;;;;;5070099;28;20572;-77
2023/09/03 00:35:57;;;;;;;0.10;0.10;;;14.40;99.90;;;;;;5053618;28;20471;-77
2023/09/03 00:38:23;;;;;;;0.10;0.10;;;14.40;99.90;;;;;;5058166;28;20449;-77
2023/09/03 00:40:48;;;;;;;0.10;0.10;;;14.30;99.90;;;;;;5072293;28;20993;-77
2023/09/03 00:43:14;;;;;;;0.10;0.10;;;14.30;99.90;;;;;;5073183;28;20268;-77
2023/09/03 00:45:42;;;;;;;0.10;0.10;;;14.30;99.90;;;;;;5076409;28;20204;-77
2023/09/03 00:48:09;;;;;;;0.10;0.10;;;14.20;99.90;;;;;;5069954;28;20248;-77
2023/09/03 00:50:36;;;;;;;0.10;0.10;;;14.20;99.90;;;;;;5061655;28;20459;-77
2023/09/03 00:53:02;;;;;;;0.10;0.10;;;14.20;99.90;;;;;;5063221;28;20460;-76
2023/09/03 00:55:28;;;;;;;0.10;0.10;;;14.30;99.90;;;;;;5069445;28;20448;-77
2023/09/03 00:57:55;;;;;;;0.10;0.10;;;14.40;99.90;;;;;;5069752;28;20440;-77
2023/09/03 01:00:21;;;;;;;0.10;0.10;;;14.40;99.90;;;;;;5069865;28;21093;-77
2023/09/03 01:02:48;;;;;;;0.10;0.10;;;14.40;99.90;;;;;;5050595;28;20514;-76
2023/09/03 01:05:14;;;;;;;0.10;0.10;;;14.30;99.90;;;;;;5073528;28;20221;-76
2023/09/03 01:07:40;;;;;;;0.10;0.10;;;14.40;99.90;;;;;;5042856;28;20444;-77
2023/09/03 01:10:06;;;;;;;0.10;0.10;;;14.40;99.90;;;;;;5057562;28;20183;-78
2023/09/03 01:12:38;;;;;;;0.10;0.10;;;14.40;99.90;;;;;;5071454;28;20195;-77
2023/09/03 01:15:24;;;;;;;0.10;0.10;;;14.30;99.90;;;;;;5071420;28;20508;-77
2023/09/03 01:17:53;;;;;;;0.10;0.10;;;14.30;99.90;;;;;;5070055;28;20526;-77
2023/09/03 01:20:25;;;;;;;0.10;0.10;;;14.30;99.90;;;;;;5079549;28;20492;-77
2023/09/03 01:22:58;;;;;;;0.10;0.10;;;14.30;99.90;;;;;;5069679;28;20539;-77
2023/09/03 01:25:42;;;;;;;0.10;0.10;;;14.30;99.90;;;;;;5054672;28;20551;-76
2023/09/03 01:28:24;;;;;;;0.10;0.10;;;14.40;99.90;;;;;;5068225;28;20439;-76
2023/09/03 01:30:53;;;;;;;0.10;0.10;;;14.20;99.90;;;;;;5078571;28;20444;-76
2023/09/03 01:33:19;;;;;;;0.10;0.10;;;14.20;99.90;;;;;;5057323;28;20467;-76
2023/09/03 01:35:47;;;;;;;0.10;0.10;;;14.20;99.90;;;;;;5089145;28;20942;-77
2023/09/03 01:38:14;;;;;;;0.10;0.10;;;14.30;99.90;;;;;;5079894;28;20480;-77
2023/09/03 01:40:40;;;;;;;0.10;0.10;;;14.30;99.90;;;;;;5090803;28;20949;-77
2023/09/03 01:43:05;;;;;;;0.10;0.10;;;14.40;99.90;;;;;;5090262;28;20443;-76
2023/09/03 01:45:41;;;;;;;0.10;0.10;;;14.30;99.90;;;;;;5084286;28;20264;-77
2023/09/03 01:48:23;;;;;;;0.10;0.10;;;14.30;99.90;;;;;;5073025;28;20212;-77
2023/09/03 01:51:30;;;;;;;0.10;0.10;;;14.30;99.90;;;;;;5090192;28;20475;-77
2023/09/03 01:54:15;;;;;;;0.10;0.10;;;14.20;99.90;;;;;;5086325;28;20443;-77
2023/09/03 01:57:18;;;;;;;0.10;0.10;;;14.10;99.90;;;;;;5081074;28;20450;-77
2023/09/03 01:59:48;;;;;;;0.00;0.00;;;14.10;99.90;;;;;;5088013;28;20426;-77
2023/09/03 02:02:16;;;;;;;0.00;0.00;;;14.10;99.90;;;;;;5067816;28;20443;-77
2023/09/03 02:04:42;;;;;;;0.00;0.00;;;14.00;99.90;;;;;;5111287;28;20518;-77
2023/09/03 02:07:08;;;;;;;0.00;0.00;;;14.10;99.90;;;;;;5093066;28;20443;-77
2023/09/03 02:09:33;;;;;;;0.00;0.00;;;14.10;99.90;;;;;;5091386;28;20462;-77
2023/09/03 02:11:59;;;;;;;0.00;0.00;;;14.10;99.90;;;;;;5098402;28;20199;-77
2023/09/03 02:14:26;;;;;;;0.03;0.03;;;14.00;99.90;;;;;;5090726;28;20200;-77
2023/09/03 02:16:52;;;;;;;0.00;0.00;;;14.00;99.90;;;;;;5089635;28;20193;-77
2023/09/03 02:19:17;;;;;;;0.00;0.00;;;14.10;99.90;;;;;;5096702;28;20460;-77
2023/09/03 02:21:43;;;;;;;0.00;0.00;;;14.00;99.90;;;;;;5097459;28;20228;-76
2023/09/03 02:24:08;;;;;;;0.00;0.00;;;14.00;99.90;;;;;;5072507;28;20215;-76
2023/09/03 02:26:41;;;;;;;0.00;0.00;;;14.10;99.90;;;;;;5078564;28;20611;-77
2023/09/03 02:29:07;;;;;;;0.00;0.00;;;14.10;99.90;;;;;;5066688;28;20189;-76
2023/09/03 02:31:33;;;;;;;0.00;0.00;;;14.00;99.90;;;;;;5084706;28;20515;-77
2023/09/03 02:33:58;;;;;;;0.00;0.00;;;13.90;99.90;;;;;;5088189;28;20479;-76
2023/09/03 02:36:24;;;;;;;0.00;0.00;;;14.00;99.90;;;;;;5085417;28;20271;-76
2023/09/03 02:39:00;;;;;;;0.00;0.00;;;13.90;99.90;;;;;;5054477;28;20251;-77
2023/09/03 02:41:26;;;;;;;0.00;0.00;;;13.90;99.90;;;;;;5063833;28;20182;-77
2023/09/03 02:43:52;;;;;;;0.00;0.00;;;14.00;99.90;;;;;;5067355;28;20901;-77
2023/09/03 02:46:17;;;;;;;0.00;0.00;;;14.00;99.90;;;;;;5061133;28;20486;-76
2023/09/03 02:48:43;;;;;;;0.00;0.00;;;14.00;99.90;;;;;;5073289;28;20272;-77
2023/09/03 02:51:08;;;;;;;0.00;0.00;;;14.00;99.90;;;;;;5086271;28;20189;-76
2023/09/03 02:53:34;;;;;;;0.00;0.00;;;14.00;99.90;;;;;;5070870;28;20945;-77
2023/09/03 02:55:59;;;;;;;0.00;0.00;;;14.00;99.90;;;;;;5084184;28;20207;-77
2023/09/03 02:58:25;;;;;;;0.00;0.00;;;14.00;99.90;;;;;;5087618;28;20213;-76
2023/09/03 03:00:50;;;;;;;0.00;0.00;;;14.00;99.90;;;;;;5092929;28;20208;-76
2023/09/03 03:03:16;;;;;;;0.00;0.00;;;14.00;99.90;;;;;;5082734;28;20192;-77
2023/09/03 03:05:41;;;;;;;0.00;0.00;;;14.00;99.90;;;;;;5090003;28;20259;-77
2023/09/03 03:08:08;;;;;;;0.00;0.00;;;13.90;99.90;;;;;;5070058;28;20556;-76
2023/09/03 03:10:33;;;;;;;0.00;0.00;;;14.00;99.90;;;;;;5086087;28;20170;-77
2023/09/03 03:12:59;;;;;;;0.00;0.00;;;13.90;99.90;;;;;;5060731;28;20462;-77
2023/09/03 03:15:25;;;;;;;0.00;0.00;;;14.00;99.90;;;;;;5069237;28;20185;-77
2023/09/03 03:17:50;;;;;;;0.00;0.00;;;14.00;99.90;;;;;;5081268;28;20184;-77
2023/09/03 03:20:16;;;;;;;0.00;0.00;;;13.90;99.90;;;;;;5076950;28;20196;-77
2023/09/03 03:22:41;;;;;;;0.00;0.00;;;14.00;99.90;;;;;;5079037;28;20200;-77
2023/09/03 03:25:07;;;;;;;0.10;0.10;;;13.90;99.90;;;;;;5094264;28;20270;-76
2023/09/03 03:27:33;;;;;;;0.00;0.00;;;13.80;99.90;;;;;;5061408;28;20284;-77
2023/09/03 03:29:58;;;;;;;0.00;0.00;;;13.80;99.90;;;;;;5084709;28;20645;-77
2023/09/03 03:32:24;;;;;;;0.00;0.00;;;13.80;99.90;;;;;;5086800;28;20612;-76
2023/09/03 03:34:49;;;;;;;0.10;0.10;;;13.80;99.90;;;;;;5072310;28;20225;-76
2023/09/03 03:37:15;;;;;;;0.10;0.10;;;13.80;99.90;;;;;;5083045;28;20595;-76
2023/09/03 03:39:40;;;;;;;0.10;0.10;;;13.80;99.90;;;;;;5083684;28;20196;-77
2023/09/03 03:42:06;;;;;;;0.00;0.00;;;13.80;99.90;;;;;;5085363;28;20205;-77
2023/09/03 03:44:31;;;;;;;0.00;0.00;;;13.80;99.90;;;;;;5081204;28;20217;-76
2023/09/03 03:46:57;;;;;;;0.00;0.00;;;13.80;99.90;;;;;;5080524;28;20199;-77
2023/09/03 03:49:22;;;;;;;0.00;0.00;;;13.80;99.90;;;;;;5082881;28;20189;-77
2023/09/03 03:51:48;;;;;;;0.00;0.00;;;13.80;99.90;;;;;;5054462;28;20914;-77
2023/09/03 03:54:14;;;;;;;0.00;0.00;;;13.80;99.90;;;;;;5071092;28;20189;-77
2023/09/03 03:56:39;;;;;;;0.00;0.00;;;13.80;99.90;;;;;;5087600;28;20223;-77
2023/09/03 03:59:05;;;;;;;0.03;0.03;;;13.80;99.90;;;;;;5079838;28;20189;-77
2023/09/03 04:01:30;;;;;;;0.03;0.03;;;13.80;99.90;;;;;;5080958;28;20217;-77
2023/09/03 04:03:57;;;;;;;0.00;0.00;;;13.70;99.90;;;;;;5087338;28;20252;-77
2023/09/03 04:06:23;;;;;;;0.10;0.10;;;13.80;99.90;;;;;;5085736;28;20914;-77
2023/09/03 04:08:48;;;;;;;0.00;0.00;;;13.70;99.90;;;;;;5091331;28;20429;-77
2023/09/03 04:11:20;;;;;;;0.10;0.10;;;13.60;99.90;;;;;;5091151;28;20716;-77
2023/09/03 04:13:46;;;;;;;0.10;0.10;;;13.70;99.90;;;;;;5071392;28;20664;-77
2023/09/03 04:16:14;;;;;;;0.10;0.10;;;13.80;99.90;;;;;;5088399;28;20434;-77
2023/09/03 04:18:40;;;;;;;0.10;0.10;;;13.80;99.90;;;;;;5089275;28;20232;-77
2023/09/03 04:21:06;;;;;;;0.10;0.10;;;13.70;99.90;;;;;;5076809;28;20498;-77
2023/09/03 04:23:32;;;;;;;0.10;0.10;;;13.70;99.90;;;;;;5078646;28;20218;-76
2023/09/03 04:25:57;;;;;;;0.10;0.10;;;13.70;99.90;;;;;;5080090;28;20444;-77
2023/09/03 04:28:24;;;;;;;0.10;0.10;;;13.70;99.90;;;;;;5085255;28;20216;-76
2023/09/03 04:30:59;;;;;;;0.10;0.10;;;13.70;99.90;;;;;;5085668;28;20683;-76
2023/09/03 04:33:24;;;;;;;0.10;0.10;;;13.60;99.90;;;;;;5076834;28;20893;-76
2023/09/03 04:35:58;;;;;;;0.10;0.10;;;13.70;99.90;;;;;;5060266;28;20545;-77
2023/09/03 04:38:24;;;;;;;0.10;0.10;;;13.70;99.90;;;;;;5087193;28;20185;-77
2023/09/03 04:40:50;;;;;;;0.10;0.10;;;13.60;99.90;;;;;;5093767;28;20451;-77
2023/09/03 04:43:17;;;;;;;0.10;0.10;;;13.60;99.90;;;;;;5089889;28;20824;-76
2023/09/03 04:45:47;;;;;;;0.10;0.10;;;13.60;99.90;;;;;;5085048;28;20227;-77
2023/09/03 04:48:13;;;;;;;0.10;0.10;;;13.60;99.90;;;;;;5089931;28;20439;-77
2023/09/03 04:50:39;;;;;;;0.10;0.10;;;13.60;99.90;;;;;;5084100;28;20496;-77
2023/09/03 04:53:05;;;;;;;0.10;0.10;;;13.70;99.90;;;;;;5086022;28;21120;-77
2023/09/03 04:55:34;;;;;;;0.10;0.10;;;13.60;99.90;;;;;;5113056;28;20832;-77
2023/09/03 04:58:00;;;;;;;0.10;0.10;;;13.60;99.90;;;;;;5092548;28;20562;-77
2023/09/03 05:00:27;;;;;;;0.10;0.10;;;13.60;99.90;;;;;;5079001;28;20454;-77
2023/09/03 05:02:53;;;;;;;0.10;0.10;;;13.50;99.90;;;;;;5081705;27;20453;-76
2023/09/03 05:05:19;;;;;;;0.10;0.10;;;13.70;99.90;;;;;;5079665;28;20490;-76
2023/09/03 05:07:46;;;;;;;0.10;0.10;;;13.70;99.90;;;;;;5052853;28;20191;-76
2023/09/03 05:10:13;;;;;;;0.10;0.10;;;13.70;99.90;;;;;;5083774;28;20578;-77
2023/09/03 05:12:41;;;;;;;0.10;0.10;;;13.70;99.90;;;;;;5077845;28;20471;-77
2023/09/03 05:15:08;;;;;;;0.10;0.10;;;13.70;99.90;;;;;;5076045;28;20556;-77
2023/09/03 05:17:34;;;;;;;0.10;0.10;;;13.60;99.90;;;;;;5074738;28;20443;-77
2023/09/03 05:19:59;;;;;;;0.10;0.10;;;13.60;99.90;;;;;;5083656;28;20504;-77
2023/09/03 05:22:25;;;;;;;0.10;0.10;;;13.70;99.90;;;;;;5080245;28;20194;-77
2023/09/03 05:24:50;;;;;;;0.10;0.10;;;13.70;99.90;;;;;;5080211;28;20214;-76
2023/09/03 05:27:16;;;;;;;0.10;0.10;;;13.70;99.90;;;;;;5086415;28;20714;-77
2023/09/03 05:29:42;;;;;;;0.10;0.10;;;13.70;99.90;;;;;;5078105;28;20188;-76
2023/09/03 05:32:07;;;;;;;0.10;0.10;;;13.80;99.90;;;;;;5077731;28;20219;-76
2023/09/03 05:34:33;;;;;;;0.10;0.10;;;13.70;99.90;;;;;;5079790;28;20921;-76
2023/09/03 05:36:58;;;;;;;0.10;0.10;;;13.80;99.90;;;;;;5098853;28;20596;-77
2023/09/03 05:39:25;;;;;;;0.00;0.00;;;13.90;99.90;;;;;;5059510;28;20284;-76
2023/09/03 05:41:50;;;;;;;0.10;0.10;;;13.90;99.90;;;;;;5076147;28;20192;-76
2023/09/03 05:44:16;;;;;;;0.10;0.10;;;14.00;99.90;;;;;;5077210;28;20479;-76
2023/09/03 05:46:43;;;;;;;0.10;0.10;;;14.00;99.90;;;;;;5072494;28;20300;-77
2023/09/03 05:49:08;;;;;;;0.10;0.10;;;14.00;99.90;;;;;;5074955;28;20193;-77
2023/09/03 05:51:34;;;;;;;0.10;0.10;;;14.00;99.90;;;;;;5082386;28;20443;-77
2023/09/03 05:54:00;;;;;;;0.10;0.10;;;14.10;99.90;;;;;;5067248;28;20258;-77
2023/09/03 05:56:25;;;;;;;0.10;0.10;;;14.10;99.90;;;;;;5074727;28;20439;-77
2023/09/03 05:58:51;;;;;;;0.10;0.10;;;14.10;99.90;;;;;;5074167;28;20194;-77
2023/09/03 06:01:17;;;;;;;0.10;0.10;;;14.10;99.90;;;;;;5085482;28;20189;-77
2023/09/03 06:03:43;;;;;;;0.00;0.00;;;14.10;99.90;;;;;;5062831;28;20472;-76
2023/09/03 06:06:10;;;;;;;0.00;0.00;;;14.00;99.90;;;;;;5067572;28;20193;-76
2023/09/03 06:08:36;;;;;;;0.00;0.00;;;14.10;99.90;;;;;;5084068;28;20655;-76
2023/09/03 06:11:03;;;;;;;0.00;0.00;;;14.20;99.90;;;;;;5070862;28;20889;-76
2023/09/03 06:13:30;;;;;;;0.00;0.00;;;14.30;99.90;;;;;;5080833;28;20522;-76
2023/09/03 06:15:56;;;;;;;0.00;0.00;;;14.40;99.90;;;;;;5065156;28;20427;-77
2023/09/03 06:18:22;;;;;;;0.00;0.00;;;14.40;99.90;;;;;;5070655;28;20446;-76
2023/09/03 06:20:49;;;;;;;0.00;0.00;;;14.50;99.90;;;;;;5102137;28;20431;-77
2023/09/03 06:23:18;;;;;;;0.00;0.00;;;14.40;99.90;;;;;;5085605;28;20449;-77
2023/09/03 06:25:48;;;;;;;0.00;0.00;;;14.60;99.90;;;;;;5066009;28;20479;-77
2023/09/03 06:28:13;;;;;;;0.00;0.00;;;14.50;99.90;;;;;;5080151;28;20511;-77
2023/09/03 06:30:39;;;;;;;0.00;0.00;;;14.60;99.90;;;;;;5080274;28;21257;-77
2023/09/03 06:33:05;;;;;;;0.00;0.00;;;14.60;99.90;;;;;;5090809;28;20440;-77
2023/09/03 06:35:31;;;;;;;0.00;0.00;;;14.50;99.90;;;;;;5050017;28;20486;-77
2023/09/03 06:37:58;;;;;;;0.00;0.00;;;14.50;99.90;;;;;;5088654;28;20258;-77
2023/09/03 06:40:24;;;;;;;0.00;0.00;;;14.60;99.90;;;;;;5087033;28;20187;-77
2023/09/03 06:42:50;;;;;;;0.00;0.00;;;14.60;99.90;;;;;;5080114;28;20864;-76
2023/09/03 06:45:15;;;;;;;0.00;0.00;;;14.60;99.90;;;;;;5052782;28;20546;-77
2023/09/03 06:47:41;;;;;;;0.00;0.00;;;14.70;99.90;;;;;;5078900;28;20436;-77
2023/09/03 06:50:07;;;;;;;0.00;0.00;;;14.80;99.90;;;;;;5080580;28;20695;-76
2023/09/03 06:52:36;;;;;;;0.00;0.00;;;14.80;99.90;;;;;;5075851;28;20233;-77
2023/09/03 06:55:02;;;;;;;0.00;0.00;;;14.90;99.90;;;;;;5099617;28;20441;-77
2023/09/03 06:57:28;;;;;;;0.00;0.00;;;15.00;99.90;;;;;;5065856;28;20490;-77
2023/09/03 06:59:54;;;;;;;0.00;0.00;;;15.10;99.90;;;;;;5078164;28;20443;-78
2023/09/03 07:02:20;;;;;;;0.00;0.00;;;15.40;99.90;;;;;;5078145;28;20275;-77
2023/09/03 07:04:45;;;;;;;0.00;0.00;;;15.50;99.90;;;;;;5056202;28;20568;-77
2023/09/03 07:07:12;;;;;;;0.00;0.00;;;15.70;99.90;;;;;;5054675;28;20220;-77
2023/09/03 07:09:38;;;;;;;0.00;0.00;;;15.70;99.90;;;;;;5064012;28;20251;-77
2023/09/03 07:12:04;;;;;;;0.00;0.00;;;15.90;99.90;;;;;;5081545;28;20435;-77
2023/09/03 07:14:33;;;;;;;0.00;0.00;;;15.80;99.90;;;;;;5085679;28;20668;-77
2023/09/03 07:17:03;;;;;;;0.00;0.00;;;15.80;99.90;;;;;;5087078;28;20472;-77
2023/09/03 07:19:29;;;;;;;0.00;0.00;;;15.80;99.90;;;;;;5082673;28;20512;-77
2023/09/03 07:21:55;;;;;;;0.00;0.00;;;15.90;99.90;;;;;;5057719;28;20530;-77
2023/09/03 07:24:21;;;;;;;0.10;0.10;;;16.20;99.90;;;;;;5078108;28;20581;-77
2023/09/03 07:26:46;;;;;;;0.10;0.10;;;16.30;99.90;;;;;;5088253;28;20221;-80
2023/09/03 07:29:16;;;;;;;0.10;0.10;;;16.40;99.90;;;;;;5086122;28;20188;-79
2023/09/03 07:31:43;;;;;;;0.10;0.10;;;16.40;99.90;;;;;;5076217;28;20179;-79
2023/09/03 07:34:09;;;;;;;0.10;0.10;;;16.60;99.90;;;;;;5052870;28;20476;-78
2023/09/03 07:36:34;;;;;;;0.10;0.10;;;16.70;99.90;;;;;;5081202;28;20462;-79
2023/09/03 07:39:00;;;;;;;0.10;0.10;;;16.70;99.90;;;;;;5080234;28;20481;-79
2023/09/03 07:41:27;;;;;;;0.00;0.00;;;16.80;99.90;;;;;;5058500;28;20934;-80
2023/09/03 07:43:54;;;;;;;0.00;0.00;;;17.00;99.90;;;;;;5064890;28;20217;-79
2023/09/03 07:46:19;;;;;;;0.00;0.00;;;17.30;99.90;;;;;;5070504;28;20462;-79
2023/09/03 07:48:45;;;;;;;0.00;0.00;;;17.20;99.90;;;;;;5066069;28;20419;-79
2023/09/03 07:51:13;;;;;;;0.00;0.00;;;17.40;99.90;;;;;;5062223;28;20186;-80
2023/09/03 07:53:39;;;;;;;0.00;0.00;;;17.10;99.90;;;;;;5084383;28;20185;-79
2023/09/03 07:56:04;;;;;;;0.00;0.00;;;17.20;99.90;;;;;;5085142;28;20434;-79
2023/09/03 07:58:30;;;;;;;0.00;0.00;;;17.20;99.90;;;;;;5088586;28;20605;-79
2023/09/03 08:00:56;;;;;;;0.00;0.00;;;17.20;99.90;;;;;;5063707;28;20182;-80
2023/09/03 08:03:21;;;;;;;0.00;0.00;;;16.90;99.90;;;;;;5061132;28;20340;-80
2023/09/03 08:05:47;;;;;;;0.00;0.00;;;17.10;99.90;;;;;;5090446;28;20212;-80
2023/09/03 08:08:12;;;;;;;0.00;0.00;;;17.40;99.90;;;;;;5088843;28;20188;-80
2023/09/03 08:10:38;;;;;;;0.00;0.00;;;17.50;99.90;;;;;;5078894;28;20189;-80
2023/09/03 08:13:04;;;;;;;0.00;0.00;;;17.50;99.90;;;;;;5073709;28;20181;-80
2023/09/03 08:15:29;;;;;;;0.00;0.00;;;17.50;99.90;;;;;;5089938;28;20188;-80
2023/09/03 08:17:54;;;;;;;0.00;0.00;;;17.70;99.90;;;;;;5108607;28;20181;-79
2023/09/03 08:20:21;;;;;;;0.00;0.00;;;17.80;99.90;;;;;;5088630;28;20182;-80
2023/09/03 08:22:47;;;;;;;0.00;0.00;;;17.90;99.90;;;;;;5060462;28;20194;-80
2023/09/03 08:25:12;;;;;;;0.00;0.00;;;18.00;99.90;;;;;;5090529;28;20543;-80
2023/09/03 08:27:38;;;;;;;0.00;0.00;;;18.10;99.90;;;;;;5084170;28;20208;-79
2023/09/03 08:30:05;;;;;;;0.00;0.00;;;18.10;99.90;;;;;;5078481;28;20189;-79
2023/09/03 08:32:30;;;;;;;0.10;0.10;;;18.10;99.90;;;;;;5071815;28;20182;-79
2023/09/03 08:34:56;;;;;;;0.10;0.10;;;18.10;99.90;;;;;;5089895;28;20482;-79
2023/09/03 08:37:26;;;;;;;0.10;0.00;;;18.30;99.90;;;;;;5087331;28;20180;-79
2023/09/03 08:39:51;;;;;;;0.00;0.00;;;18.60;99.90;;;;;;5091309;28;20208;-78
2023/09/03 08:42:17;;;;;;;0.00;0.00;;;18.80;99.90;;;;;;5068635;28;20477;-79
2023/09/03 08:44:49;;;;;;;0.00;0.00;;;19.20;99.90;;;;;;5073707;28;20573;-79
2023/09/03 08:47:17;;;;;;;0.00;0.00;;;19.20;99.90;;;;;;5079953;28;20200;-79
2023/09/03 08:49:44;;;;;;;0.00;0.00;;;19.60;99.90;;;;;;5072377;28;20443;-79
2023/09/03 08:52:10;;;;;;;0.00;0.00;;;19.60;99.90;;;;;;5066889;28;20535;-79
2023/09/03 08:54:37;;;;;;;0.00;0.00;;;19.80;99.90;;;;;;5085100;28;20526;-80
2023/09/03 08:57:04;;;;;;;0.10;0.00;;;19.90;99.90;;;;;;5092427;28;20307;-80
2023/09/03 08:59:30;;;;;;;0.00;0.00;;;19.70;99.90;;;;;;5087195;28;20438;-80
2023/09/03 09:01:57;;;;;;;0.00;0.00;;;20.10;99.90;;;;;;5090406;28;20480;-80
2023/09/03 09:04:29;;;;;;;0.10;0.10;;;20.30;99.90;;;;;;5078290;28;20222;-80
2023/09/03 09:06:57;;;;;;;0.00;0.00;;;20.20;99.90;;;;;;5088239;28;21010;-80
2023/09/03 09:09:26;;;;;;;0.10;0.00;;;20.20;99.90;;;;;;5067045;28;20444;-80
2023/09/03 09:12:12;;;;;;;0.00;0.00;;;20.30;99.90;;;;;;5080204;28;20431;-80
2023/09/03 09:15:00;;;;;;;0.00;0.00;;;20.40;99.90;;;;;;5083471;28;20541;-80
2023/09/03 09:17:28;;;;;;;0.00;0.00;;;20.60;99.90;;;;;;5080828;28;20554;-79
2023/09/03 09:19:57;;;;;;;0.00;0.00;;;20.60;99.90;;;;;;5085930;28;20431;-80
2023/09/03 09:22:23;;;;;;;0.00;0.00;;;20.70;99.90;;;;;;5055967;28;20451;-80
2023/09/03 09:24:49;;;;;;;0.00;0.00;;;20.10;99.90;;;;;;5062474;28;20565;-79
2023/09/03 09:27:15;;;;;;;0.00;0.00;;;19.30;99.90;;;;;;5088732;28;20181;-79
2023/09/03 09:29:41;;;;;;;0.00;0.00;;;19.60;99.90;;;;;;5072486;28;20444;-79
2023/09/03 09:32:18;;;;;;;0.00;0.00;;;20.10;99.90;;;;;;5045557;28;20493;-79
2023/09/03 09:34:44;;;;;;;0.00;0.00;;;20.40;99.90;;;;;;5066243;28;20237;-80
2023/09/03 09:37:10;;;;;;;0.00;0.00;;;20.60;99.90;;;;;;5085444;28;20495;-80
2023/09/03 09:39:46;;;;;;;0.00;0.00;;;20.70;99.90;;;;;;5071113;28;20182;-80
2023/09/03 09:42:13;;;;;;;0.00;0.00;;;20.70;99.90;;;;;;5073699;28;20474;-79
2023/09/03 09:44:59;;;;;;;0.00;0.00;;;20.60;99.90;;;;;;5079184;28;20552;-79
2023/09/03 09:47:25;;;;;;;0.00;0.00;;;20.60;99.90;;;;;;5083529;28;20554;-79
2023/09/03 09:49:51;;;;;;;0.00;0.00;;;20.40;99.90;;;;;;5085006;28;21012;-79
2023/09/03 09:52:18;;;;;;;0.00;0.00;;;20.90;99.90;;;;;;5082233;28;20443;-77
2023/09/03 09:54:45;;;;;;;0.03;0.00;;;21.40;99.90;;;;;;5058078;28;20182;-77
2023/09/03 09:57:20;;;;;;;0.10;0.00;;;21.60;99.90;;;;;;5077605;28;20533;-78
2023/09/03 09:59:51;;;;;;;0.00;0.00;;;21.40;99.90;;;;;;5069117;28;20443;-77
2023/09/03 10:02:19;;;;;;;0.10;0.00;;;21.50;99.90;;;;;;5081855;28;20477;-78
2023/09/03 10:04:46;;;;;;;0.07;0.00;;;21.80;99.90;;;;;;5078030;28;20487;-77
2023/09/03 10:07:13;;;;;;;0.10;0.00;;;22.00;99.90;;;;;;5075100;28;20438;-80
2023/09/03 10:09:40;;;;;;;0.10;0.00;;;21.70;99.90;;;;;;5079806;28;20493;-80
2023/09/03 10:12:08;;;;;;;0.00;0.00;;;21.40;99.90;;;;;;5071576;28;20794;-80
2023/09/03 10:14:34;;;;;;;0.00;0.00;;;21.60;99.90;;;;;;5069493;28;20472;-79
2023/09/03 10:17:02;;;;;;;0.10;0.00;;;21.50;99.90;;;;;;5069983;28;20435;-77
2023/09/03 10:19:47;;;;;;;0.10;0.00;;;21.40;99.90;;;;;;5081973;28;20447;-77
2023/09/03 10:22:15;;;;;;;0.10;0.00;;;21.80;99.90;;;;;;5050357;28;20463;-78
2023/09/03 10:24:43;;;;;;;0.10;0.00;;;22.20;99.90;;;;;;5062967;28;21210;-78
2023/09/03 10:27:12;;;;;;;0.10;0.00;;;22.60;99.90;;;;;;5075013;28;20439;-78
2023/09/03 10:29:41;;;;;;;0.10;0.00;;;22.40;99.90;;;;;;5051114;28;20971;-77
2023/09/03 10:32:08;;;;;;;0.10;0.00;;;22.10;99.90;;;;;;5050720;28;20467;-77
2023/09/03 10:34:39;;;;;;;0.10;0.00;;;21.70;99.90;;;;;;5080154;28;20468;-77
2023/09/03 10:37:10;;;;;;;0.10;0.00;;;21.60;99.90;;;;;;5052373;28;20443;-78
2023/09/03 10:39:37;;;;;;;0.00;0.00;;;21.70;99.90;;;;;;5067223;28;20802;-78
2023/09/03 10:42:15;;;;;;;0.00;0.00;;;21.20;99.90;;;;;;5078008;28;20488;-79
2023/09/03 10:44:42;;;;;;;0.07;0.00;;;20.90;99.90;;;;;;5077023;28;20470;-81
2023/09/03 10:47:08;;;;;;;0.10;0.00;;;21.40;99.90;;;;;;5082610;28;20450;-81
2023/09/03 10:49:47;;;;;;;0.10;0.00;;;21.60;99.90;;;;;;5074863;28;20440;-81
2023/09/03 10:52:28;;;;;;;0.10;0.00;;;22.30;99.90;;;;;;5045321;28;20443;-77
2023/09/03 10:55:12;;;;;;;0.10;0.00;;;22.00;99.90;;;;;;5066446;28;20589;-79
2023/09/03 10:57:37;;;;;;;0.10;0.00;;;22.30;99.90;;;;;;5080154;28;20434;-80
2023/09/03 11:00:06;;;;;;;0.00;0.00;;;22.60;99.90;;;;;;5080361;28;20498;-79
2023/09/03 11:02:34;;;;;;;0.00;0.00;;;22.50;99.90;;;;;;5078374;28;20235;-79
2023/09/03 11:05:14;;;;;;;0.10;0.00;;;22.60;99.90;;;;;;5066615;28;20478;-79
2023/09/03 11:07:41;;;;;;;0.10;0.00;;;22.30;99.90;;;;;;5074383;28;20522;-78
2023/09/03 11:10:25;;;;;;;0.00;0.00;;;22.20;99.90;;;;;;5054087;28;20455;-78
2023/09/03 11:12:52;;;;;;;0.00;0.00;;;22.90;99.90;;;;;;5071043;28;20439;-78
2023/09/03 11:15:18;;;;;;;0.00;0.00;;;23.00;99.90;;;;;;5077719;28;20435;-78
2023/09/03 11:17:50;;;;;;;0.00;0.00;;;22.40;99.90;;;;;;5081099;28;20943;-78
2023/09/03 11:20:35;;;;;;;0.00;0.00;;;22.90;99.90;;;;;;5072042;28;20471;-79
2023/09/03 11:23:02;;;;;;;0.10;0.00;;;22.70;99.90;;;;;;5075476;28;20442;-79
2023/09/03 11:25:36;;;;;;;0.00;0.00;;;22.30;99.90;;;;;;5085589;28;20489;-79
2023/09/03 11:28:03;;;;;;;0.00;0.00;;;22.40;99.90;;;;;;5059188;28;20504;-79
2023/09/03 11:30:29;;;;;;;0.00;0.00;;;22.30;99.90;;;;;;5091409;28;20444;-78
2023/09/03 11:32:55;;;;;;;0.00;0.00;;;22.20;99.90;;;;;;5082950;28;20525;-78
2023/09/03 11:35:21;;;;;;;0.00;0.00;;;22.20;99.90;;;;;;5078786;28;20485;-78
2023/09/03 11:37:49;;;;;;;0.00;0.00;;;22.40;99.90;;;;;;5077352;28;20224;-78
2023/09/03 11:40:16;;;;;;;0.00;0.00;;;22.40;99.90;;;;;;5080384;28;20484;-79
2023/09/03 11:42:45;;;;;;;0.00;0.00;;;22.40;99.90;;;;;;5080980;28;20440;-78
2023/09/03 11:45:11;;;;;;;0.00;0.00;;;22.40;99.90;;;;;;5063610;28;20552;-78
2023/09/03 11:47:46;;;;;;;0.00;0.00;;;22.40;99.90;;;;;;5075188;28;20474;-79
2023/09/03 11:50:16;;;;;;;0.00;0.00;;;22.10;99.90;;;;;;5057790;28;20455;-79
2023/09/03 11:52:47;;;;;;;0.00;0.00;;;22.40;99.90;;;;;;5080178;28;21104;-78
2023/09/03 11:55:13;;;;;;;0.00;0.00;;;22.50;99.90;;;;;;5073992;28;20446;-78
2023/09/03 11:57:39;;;;;;;0.00;0.00;;;22.40;99.90;;;;;;5079230;28;20476;-78
2023/09/03 12:00:07;;;;;;;0.00;0.00;;;22.40;99.90;;;;;;5092637;28;20992;-78
2023/09/03 12:02:33;;;;;;;0.00;0.00;;;23.00;99.90;;;;;;5074130;28;20444;-77
2023/09/03 12:04:59;;;;;;;0.00;0.00;;;23.00;99.90;;;;;;5052300;28;20481;-77
2023/09/03 12:07:24;;;;;;;0.00;0.00;;;23.00;99.90;;;;;;5081638;28;21002;-78
2023/09/03 12:09:50;;;;;;;0.00;0.00;;;22.50;99.90;;;;;;5060658;28;20225;-77
2023/09/03 12:12:17;;;;;;;0.00;0.00;;;22.30;99.90;;;;;;5071480;28;20265;-77
2023/09/03 12:14:45;;;;;;;0.00;0.00;;;22.10;99.90;;;;;;5074900;28;20234;-77
2023/09/03 12:17:11;;;;;;;0.00;0.00;;;21.90;99.90;;;;;;5076185;28;20439;-80
2023/09/03 12:19:40;;;;;;;0.00;0.00;;;21.60;99.90;;;;;;5079820;28;20451;-80
2023/09/03 12:22:06;;;;;;;0.00;0.00;;;21.80;99.90;;;;;;5079307;28;20221;-80
2023/09/03 12:24:32;;;;;;;0.00;0.00;;;22.20;99.90;;;;;;5099216;28;20501;-79
2023/09/03 12:27:05;;;;;;;0.00;0.00;;;22.10;99.90;;;;;;5101368;28;20249;-79
2023/09/03 12:29:36;;;;;;;0.00;0.00;;;22.40;99.90;;;;;;5066683;28;20189;-78
2023/09/03 12:32:02;;;;;;;0.00;0.00;;;22.90;99.90;;;;;;5079676;28;20948;-77
2023/09/03 12:34:35;;;;;;;0.00;0.00;;;22.90;99.90;;;;;;5068170;28;20471;-78
2023/09/03 12:37:02;;;;;;;0.00;0.00;;;23.10;99.90;;;;;;5082791;28;20819;-77
2023/09/03 12:39:30;;;;;;;0.00;0.00;;;22.80;99.90;;;;;;5069452;28;20432;-78
2023/09/03 12:41:55;;;;;;;0.00;0.00;;;22.70;99.90;;;;;;5069949;28;20477;-78
2023/09/03 12:44:21;;;;;;;0.00;0.00;;;22.90;99.90;;;;;;5078568;28;20506;-77
2023/09/03 12:46:46;;;;;;;0.00;0.00;;;22.70;99.90;;;;;;5078191;28;20197;-79
2023/09/03 12:49:12;;;;;;;0.00;0.00;;;22.50;99.90;;;;;;5067040;28;20214;-77
2023/09/03 12:51:39;;;;;;;0.00;0.00;;;22.40;99.90;;;;;;5086549;28;20199;-77